sensor_id;sensor_type;location;lat;lon;timestamp;P1;durP1;ratioP1;P2;durP2;ratioP2
15816;SDS011;8009;50.070;8.232;2023-05-14T00:01:18;16.30;;;15.70;;
15816;SDS011;8009;50.070;8.232;2023-05-14T00:03:51;16.63;;;16.03;;
15816;SDS011;8009;50.070;8.232;2023-05-14T00:06:20;18.07;;;17.37;;
15816;SDS011;8009;50.070;8.232;2023-05-14T00:08:52;17.53;;;16.83;;
15816;SDS011;8009;50.070;8.232;2023-05-14T00:11:21;17.53;;;16.83;;
15816;SDS011;8009;50.070;8.232;2023-05-14T00:13:49;16.13;;;15.53;;
15816;SDS011;8009;50.070;8.232;2023-05-14T00:16:18;15.90;;;15.30;;
15816;SDS011;8009;50.070;8.232;2023-05-14T00:18:46;16.87;;;16.27;;
15816;SDS011;8009;50.070;8.232;2023-05-14T00:21:17;20.07;;;19.27;;
15816;SDS011;8009;50.070;8.232;2023-05-14T00:23:45;14.03;;;13.53;;
15816;SDS011;8009;50.070;8.232;2023-05-14T00:26:15;15.43;;;14.83;;
15816;SDS011;8009;50.070;8.232;2023-05-14T00:28:45;16.45;;;15.85;;
15816;SDS011;8009;50.070;8.232;2023-05-14T00:31:14;16.30;;;15.70;;
15816;SDS011;8009;50.070;8.232;2023-05-14T00:33:42;17.00;;;16.40;;
15816;SDS011;8009;50.070;8.232;2023-05-14T00:36:11;17.27;;;16.63;;
15816;SDS011;8009;50.070;8.232;2023-05-14T00:38:41;14.17;;;13.67;;
15816;SDS011;8009;50.070;8.232;2023-05-14T00:41:10;16.90;;;16.30;;
15816;SDS011;8009;50.070;8.232;2023-05-14T00:43:39;16.77;;;16.17;;
15816;SDS011;8009;50.070;8.232;2023-05-14T00:46:07;16.30;;;15.70;;
15816;SDS011;8009;50.070;8.232;2023-05-14T00:48:36;16.87;;;16.27;;
15816;SDS011;8009;50.070;8.232;2023-05-14T00:51:06;16.70;;;16.07;;
15816;SDS011;8009;50.070;8.232;2023-05-14T00:53:35;15.77;;;15.17;;
15816;SDS011;8009;50.070;8.232;2023-05-14T00:56:06;17.00;;;16.40;;
15816;SDS011;8009;50.070;8.232;2023-05-14T00:58:35;16.70;;;16.10;;
15816;SDS011;8009;50.070;8.232;2023-05-14T01:01:04;17.33;;;16.67;;
15816;SDS011;8009;50.070;8.232;2023-05-14T01:03:32;15.37;;;14.77;;
15816;SDS011;8009;50.070;8.232;2023-05-14T01:06:03;17.80;;;17.10;;
15816;SDS011;8009;50.070;8.232;2023-05-14T01:08:40;17.10;;;16.50;;
15816;SDS011;8009;50.070;8.232;2023-05-14T01:11:21;18.93;;;18.23;;
15816;SDS011;8009;50.070;8.232;2023-05-14T01:13:56;16.20;;;15.60;;
15816;SDS011;8009;50.070;8.232;2023-05-14T01:16:30;19.80;;;19.07;;
15816;SDS011;8009;50.070;8.232;2023-05-14T01:19:01;17.60;;;16.90;;
15816;SDS011;8009;50.070;8.232;2023-05-14T01:21:35;19.97;;;19.20;;
15816;SDS011;8009;50.070;8.232;2023-05-14T01:24:05;18.97;;;18.27;;
15816;SDS011;8009;50.070;8.232;2023-05-14T01:26:34;18.17;;;17.47;;
15816;SDS011;8009;50.070;8.232;2023-05-14T01:29:07;17.27;;;16.60;;
15816;SDS011;8009;50.070;8.232;2023-05-14T01:31:41;16.67;;;16.07;;
15816;SDS011;8009;50.070;8.232;2023-05-14T01:34:13;16.33;;;15.73;;
15816;SDS011;8009;50.070;8.232;2023-05-14T01:36:45;18.10;;;17.40;;
15816;SDS011;8009;50.070;8.232;2023-05-14T01:39:17;19.13;;;18.43;;
15816;SDS011;8009;50.070;8.232;2023-05-14T01:41:48;20.27;;;19.50;;
15816;SDS011;8009;50.070;8.232;2023-05-14T01:44:20;21.03;;;20.23;;
15816;SDS011;8009;50.070;8.232;2023-05-14T01:46:49;18.37;;;17.67;;
15816;SDS011;8009;50.070;8.232;2023-05-14T01:49:17;18.67;;;17.97;;
15816;SDS011;8009;50.070;8.232;2023-05-14T01:51:48;17.60;;;16.90;;
15816;SDS011;8009;50.070;8.232;2023-05-14T01:54:17;16.87;;;16.23;;
15816;SDS011;8009;50.070;8.232;2023-05-14T01:56:45;18.97;;;18.27;;
15816;SDS011;8009;50.070;8.232;2023-05-14T01:59:13;18.20;;;17.50;;
15816;SDS011;8009;50.070;8.232;2023-05-14T02:01:41;18.17;;;17.48;;
15816;SDS011;8009;50.070;8.232;2023-05-14T02:04:10;17.50;;;16.83;;
15816;SDS011;8009;50.070;8.232;2023-05-14T02:06:38;18.20;;;17.50;;
15816;SDS011;8009;50.070;8.232;2023-05-14T02:09:09;19.17;;;18.47;;
15816;SDS011;8009;50.070;8.232;2023-05-14T02:11:37;20.30;;;19.50;;
15816;SDS011;8009;50.070;8.232;2023-05-14T02:14:05;17.80;;;17.10;;
15816;SDS011;8009;50.070;8.232;2023-05-14T02:16:34;18.83;;;18.13;;
15816;SDS011;8009;50.070;8.232;2023-05-14T02:19:02;18.37;;;17.67;;
15816;SDS011;8009;50.070;8.232;2023-05-14T02:21:31;18.43;;;17.73;;
15816;SDS011;8009;50.070;8.232;2023-05-14T02:23:59;18.23;;;17.53;;
15816;SDS011;8009;50.070;8.232;2023-05-14T02:26:30;20.37;;;19.57;;
15816;SDS011;8009;50.070;8.232;2023-05-14T02:28:58;20.07;;;19.27;;
15816;SDS011;8009;50.070;8.232;2023-05-14T02:31:27;19.67;;;18.97;;
15816;SDS011;8009;50.070;8.232;2023-05-14T02:33:55;19.87;;;19.13;;
15816;SDS011;8009;50.070;8.232;2023-05-14T02:36:27;20.50;;;19.70;;
15816;SDS011;8009;50.070;8.232;2023-05-14T02:38:57;17.90;;;17.20;;
15816;SDS011;8009;50.070;8.232;2023-05-14T02:41:26;18.17;;;17.47;;
15816;SDS011;8009;50.070;8.232;2023-05-14T02:43:57;17.47;;;16.80;;
15816;SDS011;8009;50.070;8.232;2023-05-14T02:46:25;17.37;;;16.73;;
15816;SDS011;8009;50.070;8.232;2023-05-14T02:48:53;19.80;;;19.03;;
15816;SDS011;8009;50.070;8.232;2023-05-14T02:51:22;20.47;;;19.67;;
15816;SDS011;8009;50.070;8.232;2023-05-14T02:53:51;18.73;;;18.03;;
15816;SDS011;8009;50.070;8.232;2023-05-14T02:56:19;17.13;;;16.53;;
15816;SDS011;8009;50.070;8.232;2023-05-14T02:58:48;16.70;;;16.10;;
15816;SDS011;8009;50.070;8.232;2023-05-14T03:01:20;16.57;;;15.97;;
15816;SDS011;8009;50.070;8.232;2023-05-14T03:03:49;16.87;;;16.27;;
15816;SDS011;8009;50.070;8.232;2023-05-14T03:06:17;18.40;;;17.70;;
15816;SDS011;8009;50.070;8.232;2023-05-14T03:08:45;17.60;;;16.90;;
15816;SDS011;8009;50.070;8.232;2023-05-14T03:11:14;21.45;;;20.65;;
15816;SDS011;8009;50.070;8.232;2023-05-14T03:13:42;20.67;;;19.87;;
15816;SDS011;8009;50.070;8.232;2023-05-14T03:16:10;22.37;;;21.47;;
15816;SDS011;8009;50.070;8.232;2023-05-14T03:18:41;20.63;;;19.83;;
15816;SDS011;8009;50.070;8.232;2023-05-14T03:21:10;20.73;;;19.93;;
15816;SDS011;8009;50.070;8.232;2023-05-14T03:23:38;23.07;;;22.17;;
15816;SDS011;8009;50.070;8.232;2023-05-14T03:26:06;23.83;;;22.93;;
15816;SDS011;8009;50.070;8.232;2023-05-14T03:28:35;19.47;;;18.73;;
15816;SDS011;8009;50.070;8.232;2023-05-14T03:31:03;22.40;;;21.57;;
15816;SDS011;8009;50.070;8.232;2023-05-14T03:33:32;22.00;;;21.17;;
15816;SDS011;8009;50.070;8.232;2023-05-14T03:36:03;20.43;;;19.67;;
15816;SDS011;8009;50.070;8.232;2023-05-14T03:38:33;18.87;;;18.17;;
15816;SDS011;8009;50.070;8.232;2023-05-14T03:41:01;21.03;;;20.23;;
15816;SDS011;8009;50.070;8.232;2023-05-14T03:43:29;18.20;;;17.50;;
15816;SDS011;8009;50.070;8.232;2023-05-14T03:45:58;19.20;;;18.50;;
15816;SDS011;8009;50.070;8.232;2023-05-14T03:48:26;22.47;;;21.60;;
15816;SDS011;8009;50.070;8.232;2023-05-14T03:50:54;21.77;;;20.97;;
15816;SDS011;8009;50.070;8.232;2023-05-14T03:53:25;21.77;;;20.97;;
15816;SDS011;8009;50.070;8.232;2023-05-14T03:55:53;25.37;;;24.37;;
15816;SDS011;8009;50.070;8.232;2023-05-14T03:58:22;24.60;;;23.67;;
15816;SDS011;8009;50.070;8.232;2023-05-14T04:00:50;29.63;;;28.50;;
15816;SDS011;8009;50.070;8.232;2023-05-14T04:03:19;26.60;;;25.60;;
15816;SDS011;8009;50.070;8.232;2023-05-14T04:05:47;23.10;;;22.20;;
15816;SDS011;8009;50.070;8.232;2023-05-14T04:08:15;22.87;;;21.97;;
15816;SDS011;8009;50.070;8.232;2023-05-14T04:10:46;24.13;;;23.23;;
15816;SDS011;8009;50.070;8.232;2023-05-14T04:13:15;22.07;;;21.20;;
15816;SDS011;8009;50.070;8.232;2023-05-14T04:15:43;22.27;;;21.47;;
15816;SDS011;8009;50.070;8.232;2023-05-14T04:18:12;23.17;;;22.27;;
15816;SDS011;8009;50.070;8.232;2023-05-14T04:20:43;22.17;;;21.30;;
15816;SDS011;8009;50.070;8.232;2023-05-14T04:23:11;22.97;;;22.07;;
15816;SDS011;8009;50.070;8.232;2023-05-14T04:25:39;21.50;;;20.70;;
15816;SDS011;8009;50.070;8.232;2023-05-14T04:28:11;19.40;;;18.67;;
15816;SDS011;8009;50.070;8.232;2023-05-14T04:30:40;19.77;;;19.00;;
15816;SDS011;8009;50.070;8.232;2023-05-14T04:33:09;22.53;;;21.70;;
15816;SDS011;8009;50.070;8.232;2023-05-14T04:35:38;20.90;;;20.07;;
15816;SDS011;8009;50.070;8.232;2023-05-14T04:38:06;22.97;;;22.10;;
15816;SDS011;8009;50.070;8.232;2023-05-14T04:40:35;23.73;;;22.83;;
15816;SDS011;8009;50.070;8.232;2023-05-14T04:43:03;24.33;;;23.40;;
15816;SDS011;8009;50.070;8.232;2023-05-14T04:45:34;24.50;;;23.57;;
15816;SDS011;8009;50.070;8.232;2023-05-14T04:48:03;23.17;;;22.27;;
15816;SDS011;8009;50.070;8.232;2023-05-14T04:50:32;26.17;;;25.17;;
15816;SDS011;8009;50.070;8.232;2023-05-14T04:53:00;23.27;;;22.37;;
15816;SDS011;8009;50.070;8.232;2023-05-14T04:55:28;22.20;;;21.40;;
15816;SDS011;8009;50.070;8.232;2023-05-14T04:57:57;20.83;;;20.03;;
15816;SDS011;8009;50.070;8.232;2023-05-14T05:00:25;19.97;;;19.20;;
15816;SDS011;8009;50.070;8.232;2023-05-14T05:02:57;19.60;;;18.90;;
15816;SDS011;8009;50.070;8.232;2023-05-14T05:05:28;17.47;;;16.80;;
15816;SDS011;8009;50.070;8.232;2023-05-14T05:07:56;22.53;;;21.63;;
15816;SDS011;8009;50.070;8.232;2023-05-14T05:10:25;21.40;;;20.60;;
15816;SDS011;8009;50.070;8.232;2023-05-14T05:12:53;20.83;;;20.03;;
15816;SDS011;8009;50.070;8.232;2023-05-14T05:15:21;22.17;;;21.37;;
15816;SDS011;8009;50.070;8.232;2023-05-14T05:17:49;27.00;;;26.00;;
15816;SDS011;8009;50.070;8.232;2023-05-14T05:20:20;22.93;;;22.07;;
15816;SDS011;8009;50.070;8.232;2023-05-14T05:22:49;23.03;;;22.13;;
15816;SDS011;8009;50.070;8.232;2023-05-14T05:25:17;22.93;;;22.03;;
15816;SDS011;8009;50.070;8.232;2023-05-14T05:27:47;22.33;;;21.43;;
15816;SDS011;8009;50.070;8.232;2023-05-14T05:30:16;22.13;;;21.33;;
15816;SDS011;8009;50.070;8.232;2023-05-14T05:32:44;23.57;;;22.67;;
15816;SDS011;8009;50.070;8.232;2023-05-14T05:35:13;24.33;;;23.43;;
15816;SDS011;8009;50.070;8.232;2023-05-14T05:37:45;29.63;;;28.43;;
15816;SDS011;8009;50.070;8.232;2023-05-14T05:40:14;23.27;;;22.37;;
15816;SDS011;8009;50.070;8.232;2023-05-14T05:45:29;20.63;;;19.83;;
15816;SDS011;8009;50.070;8.232;2023-05-14T05:47:58;22.20;;;21.40;;
15816;SDS011;8009;50.070;8.232;2023-05-14T05:50:26;20.33;;;19.53;;
15816;SDS011;8009;50.070;8.232;2023-05-14T05:52:58;19.27;;;18.57;;
15816;SDS011;8009;50.070;8.232;2023-05-14T05:55:27;20.30;;;19.50;;
15816;SDS011;8009;50.070;8.232;2023-05-14T05:57:55;19.53;;;18.83;;
15816;SDS011;8009;50.070;8.232;2023-05-14T06:00:23;21.67;;;20.83;;
15816;SDS011;8009;50.070;8.232;2023-05-14T06:02:51;18.27;;;17.57;;
15816;SDS011;8009;50.070;8.232;2023-05-14T06:05:20;18.27;;;17.57;;
15816;SDS011;8009;50.070;8.232;2023-05-14T06:07:48;21.63;;;20.80;;
15816;SDS011;8009;50.070;8.232;2023-05-14T06:10:20;20.80;;;20.00;;
15816;SDS011;8009;50.070;8.232;2023-05-14T06:12:48;17.60;;;16.90;;
15816;SDS011;8009;50.070;8.232;2023-05-14T06:15:17;18.50;;;17.80;;
15816;SDS011;8009;50.070;8.232;2023-05-14T06:17:45;18.77;;;18.07;;
15816;SDS011;8009;50.070;8.232;2023-05-14T06:20:13;18.87;;;18.17;;
15816;SDS011;8009;50.070;8.232;2023-05-14T06:22:42;22.03;;;21.20;;
15816;SDS011;8009;50.070;8.232;2023-05-14T06:25:10;19.27;;;18.57;;
15816;SDS011;8009;50.070;8.232;2023-05-14T06:27:41;18.10;;;17.40;;
15816;SDS011;8009;50.070;8.232;2023-05-14T06:30:10;18.60;;;17.90;;
15816;SDS011;8009;50.070;8.232;2023-05-14T06:32:39;18.17;;;17.47;;
15816;SDS011;8009;50.070;8.232;2023-05-14T06:35:08;19.97;;;19.20;;
15816;SDS011;8009;50.070;8.232;2023-05-14T06:37:36;19.47;;;18.73;;
15816;SDS011;8009;50.070;8.232;2023-05-14T06:40:07;19.37;;;18.67;;
15816;SDS011;8009;50.070;8.232;2023-05-14T06:42:37;19.30;;;18.60;;
15816;SDS011;8009;50.070;8.232;2023-05-14T06:45:11;18.10;;;17.40;;
15816;SDS011;8009;50.070;8.232;2023-05-14T06:47:40;16.83;;;16.23;;
15816;SDS011;8009;50.070;8.232;2023-05-14T06:50:09;18.97;;;18.27;;
15816;SDS011;8009;50.070;8.232;2023-05-14T06:52:38;18.50;;;17.80;;
15816;SDS011;8009;50.070;8.232;2023-05-14T06:55:07;18.77;;;18.07;;
15816;SDS011;8009;50.070;8.232;2023-05-14T07:05:27;15.90;;;15.30;;
15816;SDS011;8009;50.070;8.232;2023-05-14T07:07:56;14.60;;;14.10;;
15816;SDS011;8009;50.070;8.232;2023-05-14T07:10:24;18.40;;;17.70;;
15816;SDS011;8009;50.070;8.232;2023-05-14T07:12:52;15.97;;;15.37;;
15816;SDS011;8009;50.070;8.232;2023-05-14T07:15:21;15.37;;;14.77;;
15816;SDS011;8009;50.070;8.232;2023-05-14T07:17:49;14.63;;;14.13;;
15816;SDS011;8009;50.070;8.232;2023-05-14T07:20:20;14.93;;;14.37;;
15816;SDS011;8009;50.070;8.232;2023-05-14T07:22:55;13.43;;;12.93;;
15816;SDS011;8009;50.070;8.232;2023-05-14T07:25:23;14.73;;;14.20;;
15816;SDS011;8009;50.070;8.232;2023-05-14T07:27:55;13.83;;;13.33;;
15816;SDS011;8009;50.070;8.232;2023-05-14T07:30:23;15.20;;;14.60;;
15816;SDS011;8009;50.070;8.232;2023-05-14T07:32:52;15.23;;;14.63;;
15816;SDS011;8009;50.070;8.232;2023-05-14T07:35:21;14.87;;;14.27;;
15816;SDS011;8009;50.070;8.232;2023-05-14T07:37:50;15.53;;;14.93;;
15816;SDS011;8009;50.070;8.232;2023-05-14T07:40:21;17.13;;;16.47;;
15816;SDS011;8009;50.070;8.232;2023-05-14T07:42:52;14.70;;;14.13;;
15816;SDS011;8009;50.070;8.232;2023-05-14T07:45:20;12.93;;;12.43;;
15816;SDS011;8009;50.070;8.232;2023-05-14T07:47:49;27.50;;;26.43;;
15816;SDS011;8009;50.070;8.232;2023-05-14T07:50:18;25.33;;;24.37;;
15816;SDS011;8009;50.070;8.232;2023-05-14T07:52:48;30.83;;;29.63;;
15816;SDS011;8009;50.070;8.232;2023-05-14T07:55:22;41.83;;;40.20;;
15816;SDS011;8009;50.070;8.232;2023-05-14T07:57:53;41.30;;;39.67;;
15816;SDS011;8009;50.070;8.232;2023-05-14T08:00:23;16.10;;;15.50;;
15816;SDS011;8009;50.070;8.232;2023-05-14T08:02:53;18.33;;;17.63;;
15816;SDS011;8009;50.070;8.232;2023-05-14T08:05:22;21.30;;;20.50;;
15816;SDS011;8009;50.070;8.232;2023-05-14T08:07:51;27.20;;;26.17;;
15816;SDS011;8009;50.070;8.232;2023-05-14T08:10:20;26.57;;;25.53;;
15816;SDS011;8009;50.070;8.232;2023-05-14T08:16:05;16.50;;;15.90;;
15816;SDS011;8009;50.070;8.232;2023-05-14T08:18:34;17.83;;;17.13;;
15816;SDS011;8009;50.070;8.232;2023-05-14T08:21:03;18.80;;;18.10;;
15816;SDS011;8009;50.070;8.232;2023-05-14T08:23:44;19.53;;;18.80;;
15816;SDS011;8009;50.070;8.232;2023-05-14T08:42:19;18.23;;;17.53;;
15816;SDS011;8009;50.070;8.232;2023-05-14T08:44:52;17.70;;;17.00;;
15816;SDS011;8009;50.070;8.232;2023-05-14T08:47:24;17.37;;;16.73;;
15816;SDS011;8009;50.070;8.232;2023-05-14T08:53:07;16.50;;;15.90;;
15816;SDS011;8009;50.070;8.232;2023-05-14T08:58:50;16.73;;;16.13;;
15816;SDS011;8009;50.070;8.232;2023-05-14T09:01:18;16.87;;;16.27;;
15816;SDS011;8009;50.070;8.232;2023-05-14T09:03:50;15.53;;;14.93;;
15816;SDS011;8009;50.070;8.232;2023-05-14T09:06:41;20.73;;;19.93;;
15816;SDS011;8009;50.070;8.232;2023-05-14T09:09:13;18.30;;;17.60;;
15816;SDS011;8009;50.070;8.232;2023-05-14T09:11:46;15.70;;;15.10;;
15816;SDS011;8009;50.070;8.232;2023-05-14T09:17:03;13.97;;;13.47;;
15816;SDS011;8009;50.070;8.232;2023-05-14T09:19:32;12.77;;;12.27;;
15816;SDS011;8009;50.070;8.232;2023-05-14T09:22:08;11.63;;;11.23;;
15816;SDS011;8009;50.070;8.232;2023-05-14T09:24:39;11.37;;;10.97;;
15816;SDS011;8009;50.070;8.232;2023-05-14T09:27:08;12.60;;;12.10;;
15816;SDS011;8009;50.070;8.232;2023-05-14T09:29:44;13.00;;;12.50;;
15816;SDS011;8009;50.070;8.232;2023-05-14T09:32:13;13.63;;;13.13;;
15816;SDS011;8009;50.070;8.232;2023-05-14T09:34:41;13.90;;;13.40;;
15816;SDS011;8009;50.070;8.232;2023-05-14T09:37:09;15.23;;;14.63;;
15816;SDS011;8009;50.070;8.232;2023-05-14T09:39:40;12.37;;;11.93;;
15816;SDS011;8009;50.070;8.232;2023-05-14T09:42:08;14.40;;;13.87;;
15816;SDS011;8009;50.070;8.232;2023-05-14T09:44:36;14.00;;;13.50;;
15816;SDS011;8009;50.070;8.232;2023-05-14T09:47:08;15.23;;;14.63;;
15816;SDS011;8009;50.070;8.232;2023-05-14T09:49:36;11.63;;;11.23;;
15816;SDS011;8009;50.070;8.232;2023-05-14T09:52:05;13.07;;;12.57;;
15816;SDS011;8009;50.070;8.232;2023-05-14T09:54:34;13.27;;;12.77;;
15816;SDS011;8009;50.070;8.232;2023-05-14T09:57:04;13.63;;;13.13;;
15816;SDS011;8009;50.070;8.232;2023-05-14T09:59:35;13.33;;;12.83;;
15816;SDS011;8009;50.070;8.232;2023-05-14T10:02:03;13.13;;;12.63;;
15816;SDS011;8009;50.070;8.232;2023-05-14T10:04:38;14.10;;;13.60;;
15816;SDS011;8009;50.070;8.232;2023-05-14T10:07:07;12.80;;;12.30;;
15816;SDS011;8009;50.070;8.232;2023-05-14T10:09:50;20.80;;;20.00;;
15816;SDS011;8009;50.070;8.232;2023-05-14T10:12:24;22.70;;;21.80;;
15816;SDS011;8009;50.070;8.232;2023-05-14T10:15:00;22.00;;;21.20;;
15816;SDS011;8009;50.070;8.232;2023-05-14T10:17:32;18.40;;;17.70;;
15816;SDS011;8009;50.070;8.232;2023-05-14T10:20:08;21.20;;;20.40;;
15816;SDS011;8009;50.070;8.232;2023-05-14T10:22:40;17.13;;;16.50;;
15816;SDS011;8009;50.070;8.232;2023-05-14T10:25:10;17.43;;;16.77;;
15816;SDS011;8009;50.070;8.232;2023-05-14T10:27:38;15.30;;;14.70;;
15816;SDS011;8009;50.070;8.232;2023-05-14T10:30:10;16.70;;;16.10;;
15816;SDS011;8009;50.070;8.232;2023-05-14T10:32:39;18.93;;;18.23;;
15816;SDS011;8009;50.070;8.232;2023-05-14T10:35:17;17.73;;;17.03;;
15816;SDS011;8009;50.070;8.232;2023-05-14T10:37:49;18.23;;;17.53;;
15816;SDS011;8009;50.070;8.232;2023-05-14T10:40:18;41.90;;;39.90;;
15816;SDS011;8009;50.070;8.232;2023-05-14T10:42:50;17.47;;;16.83;;
15816;SDS011;8009;50.070;8.232;2023-05-14T10:45:19;19.13;;;18.43;;
15816;SDS011;8009;50.070;8.232;2023-05-14T10:47:49;17.13;;;16.53;;
15816;SDS011;8009;50.070;8.232;2023-05-14T10:50:20;18.17;;;17.47;;
15816;SDS011;8009;50.070;8.232;2023-05-14T10:52:51;16.97;;;16.37;;
15816;SDS011;8009;50.070;8.232;2023-05-14T10:55:19;12.23;;;11.80;;
15816;SDS011;8009;50.070;8.232;2023-05-14T11:00:59;15.13;;;14.53;;
15816;SDS011;8009;50.070;8.232;2023-05-14T11:03:30;16.27;;;15.67;;
15816;SDS011;8009;50.070;8.232;2023-05-14T11:06:01;19.57;;;18.83;;
15816;SDS011;8009;50.070;8.232;2023-05-14T11:08:30;16.87;;;16.27;;
15816;SDS011;8009;50.070;8.232;2023-05-14T11:11:00;16.43;;;15.83;;
15816;SDS011;8009;50.070;8.232;2023-05-14T11:13:29;17.50;;;16.83;;
15816;SDS011;8009;50.070;8.232;2023-05-14T11:15:59;20.50;;;19.70;;
15816;SDS011;8009;50.070;8.232;2023-05-14T11:18:29;16.80;;;16.20;;
15816;SDS011;8009;50.070;8.232;2023-05-14T11:21:02;18.00;;;17.30;;
15816;SDS011;8009;50.070;8.232;2023-05-14T11:23:31;17.07;;;16.47;;
15816;SDS011;8009;50.070;8.232;2023-05-14T11:25:59;15.70;;;15.10;;
15816;SDS011;8009;50.070;8.232;2023-05-14T11:28:27;16.33;;;15.73;;
15816;SDS011;8009;50.070;8.232;2023-05-14T11:30:56;15.20;;;14.60;;
15816;SDS011;8009;50.070;8.232;2023-05-14T11:33:26;16.00;;;15.40;;
15816;SDS011;8009;50.070;8.232;2023-05-14T11:35:54;13.40;;;12.90;;
15816;SDS011;8009;50.070;8.232;2023-05-14T11:38:25;14.97;;;14.40;;
15816;SDS011;8009;50.070;8.232;2023-05-14T11:40:54;14.43;;;13.93;;
15816;SDS011;8009;50.070;8.232;2023-05-14T11:43:23;18.33;;;17.63;;
15816;SDS011;8009;50.070;8.232;2023-05-14T11:45:53;20.03;;;19.27;;
15816;SDS011;8009;50.070;8.232;2023-05-14T11:48:22;20.10;;;19.33;;
15816;SDS011;8009;50.070;8.232;2023-05-14T11:50:51;21.30;;;20.47;;
15816;SDS011;8009;50.070;8.232;2023-05-14T11:53:23;17.70;;;17.00;;
15816;SDS011;8009;50.070;8.232;2023-05-14T11:55:56;17.03;;;16.40;;
15816;SDS011;8009;50.070;8.232;2023-05-14T11:58:25;14.50;;;14.00;;
15816;SDS011;8009;50.070;8.232;2023-05-14T12:00:53;14.73;;;14.23;;
15816;SDS011;8009;50.070;8.232;2023-05-14T12:03:22;13.97;;;13.47;;
15816;SDS011;8009;50.070;8.232;2023-05-14T12:05:54;14.60;;;14.07;;
15816;SDS011;8009;50.070;8.232;2023-05-14T12:08:27;15.33;;;14.73;;
15816;SDS011;8009;50.070;8.232;2023-05-14T12:10:57;15.23;;;14.67;;
15816;SDS011;8009;50.070;8.232;2023-05-14T12:13:26;13.80;;;13.30;;
15816;SDS011;8009;50.070;8.232;2023-05-14T12:15:56;13.67;;;13.17;;
15816;SDS011;8009;50.070;8.232;2023-05-14T12:18:26;14.27;;;13.77;;
15816;SDS011;8009;50.070;8.232;2023-05-14T12:20:58;13.93;;;13.43;;
15816;SDS011;8009;50.070;8.232;2023-05-14T12:23:31;14.00;;;13.50;;
15816;SDS011;8009;50.070;8.232;2023-05-14T12:26:00;13.83;;;13.33;;
15816;SDS011;8009;50.070;8.232;2023-05-14T12:28:30;15.93;;;15.33;;
15816;SDS011;8009;50.070;8.232;2023-05-14T12:30:59;21.87;;;21.07;;
15816;SDS011;8009;50.070;8.232;2023-05-14T12:33:28;21.43;;;20.63;;
15816;SDS011;8009;50.070;8.232;2023-05-14T12:35:56;20.27;;;19.47;;
15816;SDS011;8009;50.070;8.232;2023-05-14T12:38:25;13.80;;;13.30;;
15816;SDS011;8009;50.070;8.232;2023-05-14T12:40:56;21.80;;;20.97;;
15816;SDS011;8009;50.070;8.232;2023-05-14T12:43:25;28.97;;;27.83;;
15816;SDS011;8009;50.070;8.232;2023-05-14T12:48:41;15.00;;;14.43;;
15816;SDS011;8009;50.070;8.232;2023-05-14T12:51:10;30.30;;;29.13;;
15816;SDS011;8009;50.070;8.232;2023-05-14T12:53:39;32.93;;;31.63;;
15816;SDS011;8009;50.070;8.232;2023-05-14T12:56:10;32.80;;;31.53;;
15816;SDS011;8009;50.070;8.232;2023-05-14T12:58:39;27.43;;;26.37;;
15816;SDS011;8009;50.070;8.232;2023-05-14T13:01:07;19.47;;;18.70;;
15816;SDS011;8009;50.070;8.232;2023-05-14T13:03:36;18.33;;;17.63;;
15816;SDS011;8009;50.070;8.232;2023-05-14T13:06:04;28.50;;;27.40;;
15816;SDS011;8009;50.070;8.232;2023-05-14T13:08:33;32.90;;;31.63;;
15816;SDS011;8009;50.070;8.232;2023-05-14T13:11:02;29.37;;;28.23;;
15816;SDS011;8009;50.070;8.232;2023-05-14T13:13:34;28.30;;;27.17;;
15816;SDS011;8009;50.070;8.232;2023-05-14T13:16:05;40.33;;;38.72;;
15816;SDS011;8009;50.070;8.232;2023-05-14T13:18:40;35.77;;;34.37;;
15816;SDS011;8009;50.070;8.232;2023-05-14T13:21:08;42.87;;;41.17;;
15816;SDS011;8009;50.070;8.232;2023-05-14T13:23:38;50.50;;;48.50;;
15816;SDS011;8009;50.070;8.232;2023-05-14T13:26:07;47.77;;;45.87;;
15816;SDS011;8009;50.070;8.232;2023-05-14T13:28:38;39.17;;;37.57;;
15816;SDS011;8009;50.070;8.232;2023-05-14T13:31:07;50.93;;;48.87;;
15816;SDS011;8009;50.070;8.232;2023-05-14T13:33:37;51.27;;;49.23;;
15816;SDS011;8009;50.070;8.232;2023-05-14T13:36:07;51.97;;;49.90;;
15816;SDS011;8009;50.070;8.232;2023-05-14T13:38:37;49.63;;;47.47;;
15816;SDS011;8009;50.070;8.232;2023-05-14T13:41:05;45.97;;;44.10;;
15816;SDS011;8009;50.070;8.232;2023-05-14T13:43:34;45.37;;;43.57;;
15816;SDS011;8009;50.070;8.232;2023-05-14T13:46:05;24.23;;;23.30;;
15816;SDS011;8009;50.070;8.232;2023-05-14T13:48:34;20.87;;;20.07;;
15816;SDS011;8009;50.070;8.232;2023-05-14T13:51:02;19.27;;;18.57;;
15816;SDS011;8009;50.070;8.232;2023-05-14T13:53:30;19.93;;;19.17;;
15816;SDS011;8009;50.070;8.232;2023-05-14T13:55:59;17.47;;;16.77;;
15816;SDS011;8009;50.070;8.232;2023-05-14T13:58:50;16.97;;;16.20;;
15816;SDS011;8009;50.070;8.232;2023-05-14T14:01:21;13.67;;;13.17;;
15816;SDS011;8009;50.070;8.232;2023-05-14T14:03:49;16.13;;;15.53;;
15816;SDS011;8009;50.070;8.232;2023-05-14T14:06:18;13.40;;;12.90;;
15816;SDS011;8009;50.070;8.232;2023-05-14T14:08:46;14.43;;;13.93;;
15816;SDS011;8009;50.070;8.232;2023-05-14T14:11:14;15.67;;;15.07;;
15816;SDS011;8009;50.070;8.232;2023-05-14T14:13:43;15.23;;;14.67;;
15816;SDS011;8009;50.070;8.232;2023-05-14T14:16:11;12.83;;;12.33;;
15816;SDS011;8009;50.070;8.232;2023-05-14T14:18:42;16.53;;;15.93;;
15816;SDS011;8009;50.070;8.232;2023-05-14T14:21:11;16.80;;;16.20;;
15816;SDS011;8009;50.070;8.232;2023-05-14T14:23:42;15.87;;;15.27;;
15816;SDS011;8009;50.070;8.232;2023-05-14T14:26:18;21.42;;;20.60;;
15816;SDS011;8009;50.070;8.232;2023-05-14T14:28:46;16.17;;;15.57;;
15816;SDS011;8009;50.070;8.232;2023-05-14T14:31:14;13.50;;;13.00;;
15816;SDS011;8009;50.070;8.232;2023-05-14T14:33:46;16.27;;;15.67;;
15816;SDS011;8009;50.070;8.232;2023-05-14T14:36:14;22.53;;;21.67;;
15816;SDS011;8009;50.070;8.232;2023-05-14T14:38:42;35.10;;;33.60;;
15816;SDS011;8009;50.070;8.232;2023-05-14T14:41:11;52.20;;;50.17;;
15816;SDS011;8009;50.070;8.232;2023-05-14T14:43:40;43.37;;;41.63;;
15816;SDS011;8009;50.070;8.232;2023-05-14T14:46:09;46.43;;;44.60;;
15816;SDS011;8009;50.070;8.232;2023-05-14T14:48:37;49.87;;;47.90;;
15816;SDS011;8009;50.070;8.232;2023-05-14T14:51:08;48.40;;;46.50;;
15816;SDS011;8009;50.070;8.232;2023-05-14T14:53:37;56.07;;;53.83;;
15816;SDS011;8009;50.070;8.232;2023-05-14T14:56:05;52.87;;;50.77;;
15816;SDS011;8009;50.070;8.232;2023-05-14T14:58:34;42.70;;;41.00;;
15816;SDS011;8009;50.070;8.232;2023-05-14T15:01:02;35.63;;;34.23;;
15816;SDS011;8009;50.070;8.232;2023-05-14T15:03:32;40.87;;;39.27;;
15816;SDS011;8009;50.070;8.232;2023-05-14T15:06:04;42.20;;;40.50;;
15816;SDS011;8009;50.070;8.232;2023-05-14T15:08:35;31.43;;;30.23;;
15816;SDS011;8009;50.070;8.232;2023-05-14T15:11:03;31.83;;;30.60;;
15816;SDS011;8009;50.070;8.232;2023-05-14T15:13:33;32.57;;;31.27;;
15816;SDS011;8009;50.070;8.232;2023-05-14T15:16:04;25.93;;;24.93;;
15816;SDS011;8009;50.070;8.232;2023-05-14T15:18:32;27.37;;;26.30;;
15816;SDS011;8009;50.070;8.232;2023-05-14T15:21:01;21.50;;;20.70;;
15816;SDS011;8009;50.070;8.232;2023-05-14T15:23:29;47.20;;;45.30;;
15816;SDS011;8009;50.070;8.232;2023-05-14T15:26:03;16.23;;;15.63;;
15816;SDS011;8009;50.070;8.232;2023-05-14T15:28:31;13.13;;;12.63;;
15816;SDS011;8009;50.070;8.232;2023-05-14T15:31:00;12.60;;;12.10;;
15816;SDS011;8009;50.070;8.232;2023-05-14T15:33:29;16.57;;;15.97;;